Time;durP1;ratioP1;P1;durP2;ratioP2;P2;SDS_P1;SDS_P2;PMS_P1;PMS_P2;Temp;Humidity;BMP_temperature;BMP_pressure;BME280_temperature;BME280_humidity;BME280_pressure;Samples;Min_cycle;Max_cycle;Signal;HPM_P1;HPM_P2
2022/10/18 00:00:05;;;;;;;12.87;6.07;;;;;;;9.84;100.00;97268.28;5011885;28;20481;-76
2022/10/18 00:02:33;;;;;;;12.60;6.40;;;;;;;9.54;100.00;97259.94;4998912;28;20477;-76
2022/10/18 00:05:00;;;;;;;19.77;7.60;;;;;;;9.57;100.00;97277.81;5018574;28;20483;-76
2022/10/18 00:07:27;;;;;;;13.63;6.70;;;;;;;9.23;100.00;97214.91;4998749;28;20478;-76
2022/10/18 00:09:54;;;;;;;9.60;5.60;;;;;;;9.65;100.00;97274.47;5011498;28;20521;-76
2022/10/18 00:12:20;;;;;;;10.57;6.20;;;;;;;9.60;100.00;97279.84;5011683;28;20436;-76
2022/10/18 00:14:49;;;;;;;9.57;6.00;;;;;;;9.43;100.00;97235.59;4995434;28;20435;-76
2022/10/18 00:17:16;;;;;;;8.60;6.73;;;;;;;9.52;100.00;97258.66;4995369;28;20529;-76
2022/10/18 00:19:43;;;;;;;10.63;7.37;;;;;;;9.47;100.00;97254.25;5011617;28;20466;-76
2022/10/18 00:22:10;;;;;;;9.00;6.87;;;;;;;9.45;100.00;97278.31;5011546;28;20462;-76
2022/10/18 00:24:36;;;;;;;7.20;6.30;;;;;;;9.37;100.00;97275.59;5000602;28;20944;-77
2022/10/18 00:27:03;;;;;;;13.43;6.43;;;;;;;9.32;100.00;97251.94;5027986;28;20441;-76
2022/10/18 00:29:30;;;;;;;10.97;6.77;;;;;;;9.55;100.00;97282.63;5011337;28;20463;-76
2022/10/18 00:31:56;;;;;;;10.30;6.23;;;;;;;9.24;100.00;97276.38;5012776;28;20912;-76
2022/10/18 00:34:23;;;;;;;10.23;5.90;;;;;;;9.31;100.00;97282.81;5011632;28;20455;-76
2022/10/18 00:36:50;;;;;;;10.67;6.27;;;;;;;9.05;100.00;97274.59;5011458;28;20477;-76
2022/10/18 00:39:18;;;;;;;7.37;6.67;;;;;;;9.25;100.00;97286.66;5012540;28;20457;-76
2022/10/18 00:41:46;;;;;;;9.53;6.60;;;;;;;9.28;100.00;97262.31;5011142;28;20817;-76
2022/10/18 00:44:12;;;;;;;9.43;6.50;;;;;;;9.35;100.00;97277.75;5015327;28;20437;-76
2022/10/18 00:46:46;;;;;;;11.40;5.77;;;;;;;8.93;100.00;97282.22;5027515;28;20438;-76
2022/10/18 00:49:16;;;;;;;9.70;5.70;;;;;;;8.49;100.00;97282.72;5011986;28;20893;-76
2022/10/18 00:51:46;;;;;;;11.70;6.80;;;;;;;8.44;100.00;97251.97;5012136;28;20427;-76
2022/10/18 00:54:15;;;;;;;8.23;5.93;;;;;;;8.68;100.00;97259.72;5012889;28;20478;-75
2022/10/18 00:56:43;;;;;;;9.47;7.63;;;;;;;8.73;100.00;97243.81;5010860;28;20822;-76
2022/10/18 00:59:12;;;;;;;9.37;6.50;;;;;;;8.76;100.00;97242.44;5012087;28;20451;-76
2022/10/18 01:01:39;;;;;;;6.57;5.83;;;;;;;8.71;100.00;97248.59;5010773;28;20470;-76
2022/10/18 01:04:05;;;;;;;9.53;6.03;;;;;;;8.93;100.00;97274.28;5005042;28;20440;-76
2022/10/18 01:06:40;;;;;;;23.53;8.70;;;;;;;8.64;100.00;97237.63;5003519;28;20978;-76
2022/10/18 01:09:52;;;;;;;13.23;8.20;;;;;;;9.12;100.00;97274.22;5014223;28;20469;-77
2022/10/18 01:12:52;;;;;;;10.03;7.57;;;;;;;9.12;100.00;97268.94;4994307;28;20437;-76
2022/10/18 01:15:46;;;;;;;12.30;8.10;;;;;;;9.11;100.00;97270.03;5010675;28;20423;-76
2022/10/18 01:18:22;;;;;;;14.07;8.43;;;;;;;9.11;100.00;97268.16;4994444;28;20439;-76
2022/10/18 01:21:14;;;;;;;11.63;7.30;;;;;;;9.07;100.00;97274.31;5013575;28;20473;-76
2022/10/18 01:24:02;;;;;;;7.33;6.60;;;;;;;9.10;100.00;97263.97;5010768;28;20438;-76
2022/10/18 01:26:44;;;;;;;9.40;7.37;;;;;;;9.15;100.00;97271.00;4994142;28;20427;-76
2022/10/18 01:29:26;;;;;;;11.40;6.00;;;;;;;8.67;100.00;97257.38;5011682;28;20448;-76
2022/10/18 01:31:59;;;;;;;11.40;6.87;;;;;;;8.87;100.00;97260.44;5014079;28;20794;-76
2022/10/18 01:34:31;;;;;;;12.57;6.50;;;;;;;8.43;100.00;97221.41;5010232;28;20478;-76
2022/10/18 01:37:01;;;;;;;10.93;7.20;;;;;;;8.69;100.00;97245.47;5010189;28;20880;-77
2022/10/18 01:39:35;;;;;;;15.23;7.73;;;;;;;8.46;100.00;97212.91;5010012;28;20844;-76
2022/10/18 01:42:07;;;;;;;16.03;7.60;;;;;;;8.82;100.00;97254.47;5010097;28;20494;-76
2022/10/18 01:44:36;;;;;;;11.33;7.93;;;;;;;8.42;100.00;97203.25;5013453;28;20459;-76
2022/10/18 01:47:05;;;;;;;19.00;10.07;;;;;;;8.91;100.00;97259.84;5001923;28;20436;-76
2022/10/18 01:49:33;;;;;;;17.07;9.40;;;;;;;8.65;100.00;97228.66;5009904;28;20475;-77
2022/10/18 01:51:59;;;;;;;15.50;8.83;;;;;;;8.86;100.00;97272.06;5010042;28;20443;-76
2022/10/18 01:54:40;;;;;;;20.57;9.23;;;;;;;8.78;100.00;97262.16;5013349;28;20472;-76
2022/10/18 01:57:42;;;;;;;16.47;9.50;;;;;;;8.82;100.00;97257.13;5015073;28;20447;-76
2022/10/18 02:00:15;;;;;;;19.03;8.33;;;;;;;8.93;100.00;97268.25;5003312;28;20901;-76
2022/10/18 02:02:41;;;;;;;14.43;9.10;;;;;;;8.95;100.00;97264.25;4981518;28;20447;-76
2022/10/18 02:05:39;;;;;;;15.73;10.13;;;;;;;8.61;100.00;97197.91;5015633;28;20455;-76
2022/10/18 02:08:10;;;;;;;13.17;10.00;;;;;;;8.37;100.00;97190.94;5009947;28;20454;-75
2022/10/18 02:10:57;;;;;;;18.37;9.97;;;;;;;8.93;100.00;97255.84;5014115;28;20497;-76
2022/10/18 02:13:28;;;;;;;20.30;11.70;;;;;;;8.84;100.00;97260.25;5009829;28;20889;-75
2022/10/18 02:16:02;;;;;;;20.27;9.03;;;;;;;8.48;100.00;97221.31;5011128;28;20458;-76
2022/10/18 02:18:35;;;;;;;14.50;9.73;;;;;;;8.78;100.00;97253.47;5009834;28;20435;-76
2022/10/18 02:21:04;;;;;;;20.60;10.40;;;;;;;8.61;100.00;97240.09;5011325;28;20553;-76
2022/10/18 02:23:32;;;;;;;21.87;10.13;;;;;;;8.37;100.00;97219.13;5010992;28;20423;-77
2022/10/18 02:25:59;;;;;;;26.47;9.30;;;;;;;8.24;100.00;97210.88;5009583;28;20951;-76
2022/10/18 02:28:26;;;;;;;20.73;10.07;;;;;;;8.22;100.00;97233.31;4993412;28;20439;-76
2022/10/18 02:31:19;;;;;;;20.30;9.87;;;;;;;8.37;100.00;97245.50;5010941;28;20451;-76
2022/10/18 02:33:52;;;;;;;13.67;9.03;;;;;;;8.29;100.00;97196.84;5015427;28;20447;-76
2022/10/18 02:36:22;;;;;;;18.50;10.07;;;;;;;8.54;100.00;97235.94;5009564;28;20436;-77
2022/10/18 02:38:54;;;;;;;14.93;8.73;;;;;;;8.73;100.00;97248.31;5009769;28;20810;-76
2022/10/18 02:41:25;;;;;;;23.93;9.13;;;;;;;8.78;100.00;97246.34;5010737;28;20462;-76
2022/10/18 02:43:53;;;;;;;21.70;11.50;;;;;;;8.51;100.00;97207.53;5009542;28;20530;-77
2022/10/18 02:46:19;;;;;;;19.87;10.50;;;;;;;8.76;100.00;97242.44;5009422;28;20439;-77
2022/10/18 02:48:46;;;;;;;24.20;11.43;;;;;;;8.33;100.00;97202.31;5010735;28;20459;-76
2022/10/18 02:51:13;;;;;;;30.07;12.80;;;;;;;8.47;100.00;97206.56;4989794;28;20855;-76
2022/10/18 02:53:40;;;;;;;19.70;10.63;;;;;;;8.31;100.00;97189.44;5002925;28;20428;-77
2022/10/18 02:56:07;;;;;;;20.60;10.00;;;;;;;8.68;100.00;97243.09;5009451;28;20427;-77
2022/10/18 02:58:34;;;;;;;13.37;9.83;;;;;;;8.54;100.00;97237.81;5009431;28;20458;-77
2022/10/18 03:01:00;;;;;;;25.00;11.97;;;;;;;8.48;100.00;97207.34;5022576;28;20466;-76
2022/10/18 03:03:27;;;;;;;29.03;12.57;;;;;;;8.45;100.00;97219.25;5009339;28;20430;-76
2022/10/18 03:05:54;;;;;;;30.30;12.63;;;;;;;8.26;100.00;97205.31;5009335;28;20454;-76
2022/10/18 03:08:21;;;;;;;30.90;13.40;;;;;;;8.19;100.00;97191.75;5015357;28;20427;-76
2022/10/18 03:10:48;;;;;;;34.20;14.40;;;;;;;8.45;100.00;97223.75;4994642;28;20577;-77
2022/10/18 03:13:14;;;;;;;53.07;15.63;;;;;;;8.43;100.00;97208.25;5012851;28;20439;-76
2022/10/18 03:15:41;;;;;;;66.30;17.20;;;;;;;8.53;100.00;97220.44;5012856;28;20457;-76
2022/10/18 03:18:08;;;;;;;43.67;13.80;;;;;;;8.44;100.00;97174.75;5014300;28;20904;-76
2022/10/18 03:20:35;;;;;;;22.47;12.80;;;;;;;8.66;100.00;97216.25;4993036;28;20813;-76
2022/10/18 03:23:02;;;;;;;40.60;12.87;;;;;;;8.74;100.00;97228.78;5012938;28;20442;-76
2022/10/18 03:25:28;;;;;;;45.33;14.90;;;;;;;8.60;100.00;97186.59;5012885;28;20431;-76
2022/10/18 03:27:55;;;;;;;27.97;12.33;;;;;;;8.60;100.00;97191.84;5012466;28;20439;-76
2022/10/18 03:30:22;;;;;;;25.40;14.40;;;;;;;8.44;100.00;97159.72;5012464;28;20818;-77
2022/10/18 03:32:48;;;;;;;28.93;12.03;;;;;;;8.85;100.00;97201.94;4996231;28;20443;-76
2022/10/18 03:35:15;;;;;;;27.93;13.13;;;;;;;9.11;100.00;97236.50;4996220;28;20947;-77
2022/10/18 03:37:42;;;;;;;50.97;14.80;;;;;;;9.23;100.00;97236.03;5012409;28;20442;-76
2022/10/18 03:40:09;;;;;;;26.47;14.30;;;;;;;8.91;100.00;97199.19;5013595;28;20454;-76
2022/10/18 03:42:35;;;;;;;19.93;12.27;;;;;;;9.11;100.00;97249.72;4995994;28;20473;-76
2022/10/18 03:45:03;;;;;;;26.07;11.23;;;;;;;8.85;100.00;97216.97;5012450;28;20518;-76
2022/10/18 03:47:29;;;;;;;25.33;9.80;;;;;;;8.99;100.00;97235.44;5012072;28;20435;-76
2022/10/18 03:49:56;;;;;;;16.50;9.97;;;;;;;8.71;100.00;97201.16;4987324;28;20460;-77
2022/10/18 03:52:23;;;;;;;29.20;10.50;;;;;;;8.49;100.00;97195.75;5008159;28;20805;-77
2022/10/18 03:54:49;;;;;;;27.80;11.17;;;;;;;8.48;100.00;97176.50;5012135;28;20431;-76
2022/10/18 03:57:16;;;;;;;25.53;10.00;;;;;;;8.76;100.00;97224.78;4999973;28;20447;-76
2022/10/18 03:59:43;;;;;;;25.67;10.10;;;;;;;8.73;100.00;97220.09;5011947;28;20447;-77
2022/10/18 04:02:09;;;;;;;15.17;12.27;;;;;;;8.27;100.00;97185.81;4992841;28;20467;-76
2022/10/18 04:04:36;;;;;;;19.33;10.93;;;;;;;8.36;100.00;97178.06;5003048;28;20431;-76
2022/10/18 04:07:02;;;;;;;16.60;9.80;;;;;;;8.81;100.00;97216.78;5011835;28;20439;-76
2022/10/18 04:09:29;;;;;;;20.57;8.70;;;;;;;8.51;100.00;97164.59;4995430;28;20466;-75
2022/10/18 04:11:56;;;;;;;18.60;8.60;;;;;;;8.28;100.00;97132.06;5011719;28;20432;-76
2022/10/18 04:14:22;;;;;;;16.00;10.17;;;;;;;8.59;100.00;97188.44;5021148;28;20439;-76
2022/10/18 04:16:49;;;;;;;30.00;10.23;;;;;;;8.32;100.00;97143.56;5015533;28;20948;-76
2022/10/18 04:19:16;;;;;;;45.07;10.20;;;;;;;8.64;100.00;97182.28;5020923;28;20810;-77
2022/10/18 04:21:42;;;;;;;22.90;10.30;;;;;;;8.80;100.00;97199.38;5011162;28;20478;-76
2022/10/18 04:24:09;;;;;;;23.37;10.03;;;;;;;8.79;100.00;97194.41;5012876;28;20811;-76
2022/10/18 04:26:36;;;;;;;17.70;8.70;;;;;;;8.84;100.00;97202.22;5011610;28;20810;-76
2022/10/18 04:29:02;;;;;;;17.97;9.60;;;;;;;8.55;100.00;97171.66;5011315;28;21070;-76
2022/10/18 04:31:29;;;;;;;12.83;10.20;;;;;;;8.42;100.00;97156.59;5011455;28;20430;-76
2022/10/18 04:33:56;;;;;;;11.67;9.00;;;;;;;8.51;100.00;97160.09;5011380;28;20541;-76
2022/10/18 04:36:22;;;;;;;15.50;10.00;;;;;;;8.39;100.00;97145.84;5012616;28;20994;-76
2022/10/18 04:38:49;;;;;;;13.67;9.67;;;;;;;8.55;100.00;97163.75;5011245;28;20430;-76
2022/10/18 04:41:16;;;;;;;14.43;8.70;;;;;;;8.47;100.00;97135.41;5011023;28;20478;-76
2022/10/18 04:43:42;;;;;;;24.40;9.50;;;;;;;8.91;100.00;97188.63;5012585;28;20526;-76
2022/10/18 04:46:09;;;;;;;16.60;10.40;;;;;;;8.62;100.00;97152.81;4945405;28;20497;-76
2022/10/18 04:48:35;;;;;;;14.20;9.73;;;;;;;8.83;100.00;97188.25;5011053;28;20438;-76
2022/10/18 04:51:02;;;;;;;17.13;8.70;;;;;;;8.78;100.00;97196.25;5012593;28;21001;-76
2022/10/18 04:53:29;;;;;;;18.33;9.50;;;;;;;8.67;100.00;97165.88;5010993;28;20442;-76
2022/10/18 04:55:55;;;;;;;17.63;9.57;;;;;;;8.59;100.00;97167.34;5011582;28;20427;-76
2022/10/18 04:58:22;;;;;;;12.43;8.57;;;;;;;8.78;100.00;97198.88;4996107;28;20457;-76
2022/10/18 05:00:49;;;;;;;21.60;9.10;;;;;;;8.54;100.00;97171.91;5013577;28;20459;-76
2022/10/18 05:03:16;;;;;;;12.63;10.37;;;;;;;8.51;100.00;97151.41;4994560;28;20501;-76
2022/10/18 05:05:44;;;;;;;19.50;10.50;;;;;;;8.54;100.00;97164.78;4999184;28;20434;-76
2022/10/18 05:08:29;;;;;;;16.37;10.90;;;;;;;8.66;100.00;97172.22;5010850;28;20442;-76
2022/10/18 05:10:56;;;;;;;14.60;10.30;;;;;;;8.68;100.00;97180.66;5011914;28;20467;-75
2022/10/18 05:13:23;;;;;;;14.83;10.10;;;;;;;8.49;100.00;97151.72;5010941;28;20854;-76
2022/10/18 05:15:50;;;;;;;20.40;11.00;;;;;;;8.66;100.00;97171.44;4994573;28;20523;-76
2022/10/18 05:18:17;;;;;;;14.03;11.07;;;;;;;8.54;100.00;97145.56;5025748;28;20867;-76
2022/10/18 05:20:44;;;;;;;14.83;10.00;;;;;;;8.72;100.00;97178.19;5012440;28;20482;-76
2022/10/18 05:23:10;;;;;;;21.73;9.37;;;;;;;8.49;100.00;97148.31;5010608;28;20826;-76
2022/10/18 05:25:38;;;;;;;21.80;11.20;;;;;;;8.60;100.00;97168.13;4994361;28;20446;-76
2022/10/18 05:28:05;;;;;;;21.53;10.00;;;;;;;8.59;100.00;97146.25;5011786;28;20450;-77
2022/10/18 05:30:46;;;;;;;24.23;10.33;;;;;;;8.53;100.00;97139.50;4996111;28;21037;-77
2022/10/18 05:33:13;;;;;;;15.57;12.30;;;;;;;8.64;100.00;97149.88;5009650;28;20459;-77
2022/10/18 05:35:40;;;;;;;31.20;21.73;;;;;;;8.88;100.00;97180.25;5010130;28;20497;-76
2022/10/18 05:38:06;;;;;;;24.60;22.00;;;;;;;8.96;100.00;97173.50;5006368;28;20439;-76
2022/10/18 05:40:33;;;;;;;13.90;12.23;;;;;;;8.97;100.00;97169.00;5010519;28;20451;-77
2022/10/18 05:43:00;;;;;;;20.87;12.87;;;;;;;8.90;100.00;97156.22;5011822;28;20469;-78
2022/10/18 05:45:26;;;;;;;17.97;10.90;;;;;;;8.66;100.00;97116.88;5010496;28;20447;-78
2022/10/18 05:47:53;;;;;;;12.57;10.93;;;;;;;9.00;100.00;97174.47;4981241;28;20498;-78
2022/10/18 05:50:20;;;;;;;19.00;10.97;;;;;;;8.66;100.00;97127.41;5010371;28;20463;-78
2022/10/18 05:52:47;;;;;;;18.43;11.70;;;;;;;9.05;100.00;97189.41;4994457;28;20470;-78
2022/10/18 05:55:14;;;;;;;20.83;12.67;;;;;;;8.91;100.00;97162.25;5011761;28;20429;-78
2022/10/18 05:57:40;;;;;;;16.10;10.47;;;;;;;8.94;100.00;97159.03;5011764;28;20419;-78
2022/10/18 06:00:08;;;;;;;25.00;11.10;;;;;;;9.20;100.00;97194.38;5010367;28;20458;-78
2022/10/18 06:02:37;;;;;;;24.80;11.07;;;;;;;9.00;100.00;97153.38;5011617;28;20462;-78
2022/10/18 06:05:04;;;;;;;21.20;10.60;;;;;;;9.28;100.00;97185.00;4994000;28;20474;-78
2022/10/18 06:07:30;;;;;;;17.27;11.30;;;;;;;9.19;100.00;97177.75;4993934;28;20439;-78
2022/10/18 06:09:57;;;;;;;17.83;12.43;;;;;;;9.04;100.00;97146.41;4993649;28;21014;-77
2022/10/18 06:12:24;;;;;;;21.50;10.97;;;;;;;9.01;100.00;97140.97;5010147;28;20447;-78
2022/10/18 06:14:50;;;;;;;23.70;12.57;;;;;;;9.30;100.00;97167.78;5010022;28;20444;-78
2022/10/18 06:17:17;;;;;;;11.40;9.63;;;;;;;9.16;100.00;97148.56;4993780;28;20431;-78
2022/10/18 06:19:44;;;;;;;34.43;11.83;;;;;;;9.25;100.00;97167.13;5011244;28;20553;-78
2022/10/18 06:22:11;;;;;;;23.17;10.50;;;;;;;9.41;100.00;97186.81;5006507;28;20464;-78
2022/10/18 06:24:38;;;;;;;22.07;11.30;;;;;;;9.11;100.00;97146.03;5009831;28;20443;-78
2022/10/18 06:27:07;;;;;;;21.67;11.23;;;;;;;9.24;100.00;97153.16;4993761;28;20431;-78
2022/10/18 06:29:35;;;;;;;20.93;14.07;;;;;;;9.27;100.00;97134.06;5011180;28;20451;-78
2022/10/18 06:32:02;;;;;;;23.20;13.13;;;;;;;9.23;100.00;97146.31;5010225;28;20797;-77
2022/10/18 06:34:29;;;;;;;20.57;11.43;;;;;;;9.11;100.00;97109.09;5026523;28;20881;-78
2022/10/18 06:36:55;;;;;;;16.60;11.50;;;;;;;9.41;100.00;97155.94;4993867;28;20814;-78
2022/10/18 06:39:25;;;;;;;16.73;11.30;;;;;;;9.29;100.00;97163.56;5009827;28;20530;-78
2022/10/18 06:41:52;;;;;;;15.37;12.27;;;;;;;9.25;100.00;97152.06;5009741;28;20546;-78
2022/10/18 06:44:19;;;;;;;14.63;12.87;;;;;;;9.29;100.00;97153.03;4994744;28;20453;-79
2022/10/18 06:46:47;;;;;;;16.57;11.53;;;;;;;9.48;100.00;97193.28;5013633;28;20431;-78
2022/10/18 06:49:15;;;;;;;20.40;12.60;;;;;;;9.65;100.00;97212.97;5013497;28;20451;-78
2022/10/18 06:51:45;;;;;;;17.07;13.13;;;;;;;9.38;100.00;97167.09;5013584;28;20431;-78
2022/10/18 06:54:11;;;;;;;18.27;11.23;;;;;;;9.61;100.00;97196.16;5013589;28;20522;-78
2022/10/18 06:56:44;;;;;;;15.27;13.67;;;;;;;9.40;100.00;97172.84;4998062;28;20441;-77
2022/10/18 06:59:11;;;;;;;16.53;14.00;;;;;;;9.41;100.00;97181.53;5013488;28;20963;-78
2022/10/18 07:01:37;;;;;;;17.40;11.83;;;;;;;9.71;100.00;97209.13;5021698;28;20434;-78
2022/10/18 07:04:04;;;;;;;15.20;12.60;;;;;;;9.66;100.00;97222.47;5013395;28;20466;-78
2022/10/18 07:06:31;;;;;;;13.63;11.50;;;;;;;9.77;100.00;97226.44;5014647;28;20463;-78
2022/10/18 07:08:57;;;;;;;14.90;10.97;;;;;;;9.95;100.00;97217.56;5012968;28;20457;-78
2022/10/18 07:11:25;;;;;;;16.23;11.90;;;;;;;9.94;100.00;97225.78;4997028;28;20437;-78
2022/10/18 07:13:53;;;;;;;11.17;9.10;;;;;;;9.80;100.00;97199.44;5013053;28;20431;-78
2022/10/18 07:16:20;;;;;;;11.53;10.20;;;;;;;9.65;100.00;97186.56;4996799;28;20439;-78
2022/10/18 07:18:49;;;;;;;11.77;10.00;;;;;;;9.63;100.00;97176.31;5009595;28;20449;-78
2022/10/18 07:21:18;;;;;;;14.33;11.47;;;;;;;9.89;100.00;97220.63;5013087;28;20505;-78
2022/10/18 07:23:46;;;;;;;15.80;10.07;;;;;;;9.99;100.00;97229.09;5001567;28;20459;-78
2022/10/18 07:26:15;;;;;;;12.47;10.87;;;;;;;10.01;100.00;97232.19;4996689;28;20443;-78
2022/10/18 07:28:44;;;;;;;12.93;10.40;;;;;;;10.18;100.00;97230.78;5012783;28;20981;-78
2022/10/18 07:31:11;;;;;;;12.37;9.70;;;;;;;9.97;100.00;97190.84;5012830;28;20462;-78
2022/10/18 07:33:38;;;;;;;12.40;10.50;;;;;;;10.24;100.00;97211.09;5012870;28;20439;-78
2022/10/18 07:36:08;;;;;;;12.10;10.37;;;;;;;10.49;100.00;97249.34;4996593;28;20526;-78
2022/10/18 07:38:34;;;;;;;11.23;10.10;;;;;;;10.22;100.00;97218.56;5012838;28;20919;-78
2022/10/18 07:41:05;;;;;;;12.17;10.87;;;;;;;10.32;100.00;97234.94;5016905;28;20451;-78
2022/10/18 07:43:33;;;;;;;12.43;11.17;;;;;;;9.97;100.00;97178.41;5012437;28;20466;-78
2022/10/18 07:46:02;;;;;;;10.90;9.80;;;;;;;10.15;100.00;97183.78;5013818;28;20435;-78
2022/10/18 07:48:29;;;;;;;14.10;11.87;;;;;;;10.35;100.00;97207.13;5012591;28;20430;-78
2022/10/18 07:51:00;;;;;;;16.00;11.03;;;;;;;10.59;100.00;97220.03;4982895;28;20454;-78
2022/10/18 07:53:28;;;;;;;13.73;11.13;;;;;;;10.77;100.00;97234.09;5012438;28;20434;-78
2022/10/18 07:56:03;;;;;;;12.03;9.87;;;;;;;10.47;100.00;97182.78;5007396;28;20444;-78
2022/10/18 07:58:34;;;;;;;14.53;11.20;;;;;;;10.69;100.00;97211.03;5012295;28;20439;-78
2022/10/18 08:01:03;;;;;;;12.93;11.43;;;;;;;10.76;100.00;97216.66;5012162;28;20464;-78
2022/10/18 08:03:30;;;;;;;14.77;12.20;;;;;;;10.68;100.00;97204.16;5013570;28;20994;-78
2022/10/18 08:05:56;;;;;;;17.57;10.77;;;;;;;10.80;100.00;97191.16;5012415;28;20834;-78
2022/10/18 08:08:24;;;;;;;15.43;12.20;;;;;;;10.76;100.00;97195.50;5012192;28;20447;-78
2022/10/18 08:10:50;;;;;;;18.83;16.13;;;;;;;10.81;100.00;97211.22;5012178;28;20450;-78
2022/10/18 08:13:17;;;;;;;20.17;13.80;;;;;;;10.86;100.00;97229.63;5012190;28;20439;-78
2022/10/18 08:15:44;;;;;;;15.33;13.67;;;;;;;10.77;100.00;97232.22;5013400;28;20934;-78
2022/10/18 08:18:11;;;;;;;14.43;12.93;;;;;;;10.89;100.00;97218.44;4995703;28;20826;-78
2022/10/18 08:20:42;;;;;;;15.80;13.30;;;;;;;10.91;100.00;97227.63;5011849;28;20455;-78
2022/10/18 08:23:09;;;;;;;18.47;13.70;;;;;;;10.73;100.00;97206.69;4999306;28;21086;-78
2022/10/18 08:25:36;;;;;;;16.10;14.43;;;;;;;10.66;100.00;97192.03;4995589;28;21263;-78
2022/10/18 08:28:03;;;;;;;16.00;13.63;;;;;;;10.62;100.00;97183.16;5013164;28;20463;-78
2022/10/18 08:30:29;;;;;;;15.77;12.80;;;;;;;10.56;100.00;97151.88;4995372;28;20979;-78
2022/10/18 08:32:56;;;;;;;19.90;15.77;;;;;;;10.95;100.00;97202.13;4982355;28;20454;-78
2022/10/18 08:35:22;;;;;;;16.20;12.37;;;;;;;10.75;100.00;97151.63;5012967;28;20442;-78
2022/10/18 08:37:50;;;;;;;18.80;14.63;;;;;;;11.02;100.00;97171.78;5011527;28;20954;-78
2022/10/18 08:40:16;;;;;;;19.00;12.80;;;;;;;11.03;100.00;97160.09;5012005;28;20473;-78
2022/10/18 08:42:48;;;;;;;16.50;14.37;;;;;;;11.20;100.00;97179.44;4982372;28;20455;-78
2022/10/18 08:45:15;;;;;;;16.97;13.10;;;;;;;11.43;100.00;97195.22;5013031;28;20419;-78
2022/10/18 08:48:04;;;;;;;15.57;13.30;;;;;;;11.37;100.00;97176.06;5015509;28;20442;-78
2022/10/18 08:50:35;;;;;;;19.70;13.77;;;;;;;11.66;100.00;97223.13;4995253;28;20499;-78
2022/10/18 08:53:09;;;;;;;16.43;14.40;;;;;;;11.69;100.00;97197.88;5011503;28;20423;-78
2022/10/18 08:56:13;;;;;;;15.17;13.63;;;;;;;11.96;100.00;97224.09;5012647;28;20529;-78
2022/10/18 08:58:43;;;;;;;16.60;14.47;;;;;;;12.21;100.00;97200.53;4989101;28;20443;-78
2022/10/18 09:01:12;;;;;;;17.23;14.13;;;;;;;12.66;100.00;97233.50;5011379;28;20431;-78
2022/10/18 09:04:01;;;;;;;19.53;15.40;;;;;;;12.92;100.00;97238.72;5011222;28;20467;-78
2022/10/18 09:06:46;;;;;;;16.00;14.03;;;;;;;12.87;100.00;97233.59;4995064;28;20811;-78
2022/10/18 09:09:33;;;;;;;17.23;14.27;;;;;;;12.59;100.00;97219.94;4998729;28;20467;-78
2022/10/18 09:12:30;;;;;;;18.03;15.50;;;;;;;12.88;100.00;97252.94;5011358;28;20462;-78
2022/10/18 09:15:26;;;;;;;20.90;16.17;;;;;;;13.09;100.00;97255.66;5012279;28;20466;-78
2022/10/18 09:18:16;;;;;;;18.23;14.90;;;;;;;13.00;100.00;97232.59;5011096;28;20436;-78
2022/10/18 09:20:55;;;;;;;26.13;18.90;;;;;;;13.18;100.00;97261.72;5001577;28;20454;-79
2022/10/18 09:23:39;;;;;;;21.13;17.53;;;;;;;13.00;100.00;97263.69;5010812;28;20467;-78
2022/10/18 09:26:18;;;;;;;21.67;17.33;;;;;;;13.22;100.00;97260.81;5012063;28;20545;-78
2022/10/18 09:29:25;;;;;;;21.13;17.93;;;;;;;13.10;100.00;97236.78;5010591;28;20441;-78
2022/10/18 09:32:03;;;;;;;19.37;16.37;;;;;;;13.19;100.00;97232.22;5015197;28;20449;-78
2022/10/18 09:35:05;;;;;;;23.27;18.23;;;;;;;13.40;100.00;97239.47;5011921;28;20451;-78
2022/10/18 09:37:33;;;;;;;21.60;18.10;;;;;;;13.35;100.00;97236.97;5010541;28;20462;-78
2022/10/18 09:40:13;;;;;;;24.93;17.53;;;;;;;13.19;100.00;97218.94;5011773;28;20973;-78
2022/10/18 09:42:54;;;;;;;23.67;16.57;;;;;;;13.26;100.00;97255.63;5011793;28;20566;-78
2022/10/18 09:45:29;;;;;;;22.03;17.50;;;;;;;13.36;100.00;97252.63;5011741;28;20419;-78
2022/10/18 09:48:31;;;;;;;20.07;17.27;;;;;;;13.32;100.00;97255.13;5004261;28;20439;-78
2022/10/18 09:51:13;;;;;;;23.43;16.77;;;;;;;13.12;100.00;97229.28;5008543;28;20971;-78
2022/10/18 09:53:55;;;;;;;24.00;16.80;;;;;;;13.53;100.00;97247.19;5005431;28;20422;-78
2022/10/18 09:56:47;;;;;;;20.03;17.30;;;;;;;13.78;100.00;97250.00;5010374;28;20447;-78
2022/10/18 09:59:28;;;;;;;18.50;15.33;;;;;;;13.88;100.00;97252.25;5010227;28;20892;-78
2022/10/18 10:01:55;;;;;;;21.90;16.30;;;;;;;13.57;100.00;97221.53;5010326;28;20437;-78
2022/10/18 10:04:22;;;;;;;20.80;16.73;;;;;;;13.67;100.00;97238.22;4993884;28;20873;-78
2022/10/18 10:06:53;;;;;;;20.80;15.93;;;;;;;14.04;100.00;97250.59;5010217;28;20423;-78
2022/10/18 10:09:35;;;;;;;17.10;14.33;;;;;;;14.22;100.00;97250.44;4993711;28;20478;-78
2022/10/18 10:12:02;;;;;;;17.83;14.97;;;;;;;14.16;100.00;97215.31;5010134;28;20985;-78
2022/10/18 10:14:29;;;;;;;19.43;14.40;;;;;;;14.18;100.00;97199.78;5009956;28;20794;-78
2022/10/18 10:17:05;;;;;;;16.37;14.20;;;;;;;14.24;100.00;97195.03;5010010;28;20482;-78
2022/10/18 10:19:36;;;;;;;18.63;15.43;;;;;;;14.70;100.00;97257.84;5012944;28;20443;-78
2022/10/18 10:22:12;;;;;;;18.93;13.97;;;;;;;14.60;100.00;97250.28;5017822;28;20491;-78
2022/10/18 10:24:44;;;;;;;21.27;13.90;;;;;;;14.40;100.00;97212.69;5014092;28;20467;-78
2022/10/18 10:27:20;;;;;;;16.47;14.87;;;;;;;14.69;100.00;97241.09;5014216;28;20435;-78
2022/10/18 10:29:50;;;;;;;21.33;14.00;;;;;;;15.06;100.00;97241.13;5016904;28;20478;-78
2022/10/18 10:32:19;;;;;;;17.30;13.80;;;;;;;15.34;100.00;97238.56;5013913;28;20446;-78
2022/10/18 10:34:46;;;;;;;13.13;11.90;;;;;;;15.32;100.00;97225.59;5013934;28;20489;-78
2022/10/18 10:37:26;;;;;;;13.83;12.57;;;;;;;15.33;100.00;97242.34;4997803;28;20450;-78
2022/10/18 10:40:18;;;;;;;14.07;12.67;;;;;;;15.49;100.00;97235.25;5015312;28;20978;-78
2022/10/18 10:42:58;;;;;;;13.40;11.73;;;;;;;15.89;100.00;97229.97;5014417;28;20463;-78
2022/10/18 10:46:01;;;;;;;13.97;10.00;;;;;;;15.90;100.00;97231.53;4999270;28;20454;-78
2022/10/18 10:48:49;;;;;;;15.77;11.47;;;;;;;15.95;100.00;97214.50;5014140;28;20966;-78
2022/10/18 10:51:37;;;;;;;13.67;11.70;;;;;;;16.25;100.00;97207.69;5015021;28;20434;-78
2022/10/18 10:54:19;;;;;;;12.23;9.97;;;;;;;16.50;100.00;97224.38;5015061;28;20431;-78
2022/10/18 10:57:17;;;;;;;11.87;9.77;;;;;;;16.87;100.00;97221.50;5015027;28;20466;-78
2022/10/18 10:59:47;;;;;;;10.90;9.90;;;;;;;16.93;100.00;97208.66;5003110;28;20463;-78
2022/10/18 11:02:16;;;;;;;11.97;9.33;;;;;;;16.92;100.00;97218.56;5013541;28;20460;-78
2022/10/18 11:04:45;;;;;;;9.60;8.67;;;;;;;17.16;100.00;97211.50;5014765;28;20452;-78
2022/10/18 11:07:19;;;;;;;12.30;8.50;;;;;;;17.17;100.00;97208.47;5013527;28;20434;-78
2022/10/18 11:09:52;;;;;;;8.90;8.10;;;;;;;17.30;100.00;97219.81;4997129;28;20471;-79
2022/10/18 11:12:27;;;;;;;8.93;8.00;;;;;;;17.44;100.00;97212.91;5000360;28;20426;-79
2022/10/18 11:15:10;;;;;;;9.20;8.30;;;;;;;17.52;100.00;97208.50;5014692;28;20415;-78
2022/10/18 11:18:06;;;;;;;9.37;8.00;;;;;;;17.28;100.00;97179.31;5014514;28;20434;-78
2022/10/18 11:20:57;;;;;;;8.43;7.37;;;;;;;17.62;100.00;97210.59;5001648;28;20447;-78
2022/10/18 11:23:31;;;;;;;8.00;6.53;;;;;;;17.48;100.00;97204.94;5013972;28;20876;-78
2022/10/18 11:26:10;;;;;;;9.63;6.10;;;;;;;17.46;100.00;97201.84;5013810;28;20454;-78
2022/10/18 11:29:14;;;;;;;7.77;6.97;;;;;;;17.22;100.00;97199.38;5027128;28;20435;-78
2022/10/18 11:31:46;;;;;;;9.67;7.03;;;;;;;16.95;100.00;97193.81;4996579;28;20928;-78
2022/10/18 11:34:42;;;;;;;10.03;7.70;;;;;;;16.55;100.00;97159.25;5013924;28;20903;-78
2022/10/18 11:37:41;;;;;;;9.57;7.60;;;;;;;16.76;100.00;97178.50;5009937;28;20923;-78